createdAt,value
2017-10-11T00:00:15.679Z,13.30
2017-10-11T00:02:43.004Z,11.93
2017-10-11T00:05:10.321Z,12.33
2017-10-11T00:07:37.637Z,11.90
2017-10-11T00:10:04.940Z,13.13
2017-10-11T00:12:32.284Z,12.90
2017-10-11T00:14:59.597Z,12.00
2017-10-11T00:17:26.929Z,11.63
2017-10-11T00:19:54.232Z,10.80
2017-10-11T00:22:21.577Z,11.63
2017-10-11T00:24:48.917Z,11.30
2017-10-11T00:27:16.244Z,11.60
2017-10-11T00:29:43.573Z,11.43
2017-10-11T00:32:10.885Z,11.47
2017-10-11T00:34:38.191Z,10.87
2017-10-11T00:37:05.513Z,11.20
2017-10-11T00:39:32.825Z,11.40
2017-10-11T00:42:00.141Z,10.00
2017-10-11T00:44:27.477Z,11.13
2017-10-11T00:46:54.786Z,11.47
2017-10-11T00:49:22.112Z,10.80
2017-10-11T00:51:49.421Z,10.70
2017-10-11T00:54:16.748Z,9.97
2017-10-11T00:56:44.062Z,10.57
2017-10-11T00:59:11.438Z,10.33
2017-10-11T01:01:38.773Z,10.20
2017-10-11T01:04:06.098Z,10.90
2017-10-11T01:06:33.401Z,10.30
2017-10-11T01:09:00.749Z,10.20
2017-10-11T01:11:28.051Z,10.23
2017-10-11T01:13:55.410Z,10.53
2017-10-11T01:16:22.712Z,11.10
2017-10-11T01:18:50.006Z,9.90
2017-10-11T01:21:17.329Z,10.33
2017-10-11T01:23:44.655Z,9.97
2017-10-11T01:26:11.970Z,9.20
2017-10-11T01:28:39.289Z,9.80
2017-10-11T01:31:06.617Z,10.67
2017-10-11T01:33:33.944Z,11.00
2017-10-11T01:36:01.325Z,9.20
2017-10-11T01:38:28.641Z,8.97
2017-10-11T01:40:55.944Z,10.77
2017-10-11T01:43:23.256Z,10.57
2017-10-11T01:45:50.571Z,9.40
2017-10-11T01:48:17.875Z,10.10
2017-10-11T01:50:45.213Z,9.73
2017-10-11T01:53:12.735Z,10.53
2017-10-11T01:55:40.043Z,10.70
2017-10-11T01:58:07.366Z,10.00
2017-10-11T02:00:34.710Z,10.43
2017-10-11T02:03:02.029Z,10.73
2017-10-11T02:05:29.338Z,10.27
2017-10-11T02:07:56.661Z,11.50
2017-10-11T02:10:23.965Z,10.37
2017-10-11T02:12:51.289Z,10.53
2017-10-11T02:15:18.598Z,11.37
2017-10-11T02:17:45.990Z,12.30
2017-10-11T02:20:13.300Z,12.67
2017-10-11T02:22:40.621Z,13.40
2017-10-11T02:25:07.933Z,12.97
2017-10-11T02:27:35.285Z,13.60
2017-10-11T02:30:02.622Z,12.50
2017-10-11T02:32:30.925Z,15.30
2017-10-11T02:34:58.245Z,15.33
2017-10-11T02:37:25.547Z,13.80
2017-10-11T02:39:52.868Z,16.13
2017-10-11T02:42:20.179Z,14.70
2017-10-11T02:44:47.514Z,16.27
2017-10-11T02:47:14.825Z,16.03
2017-10-11T02:49:42.153Z,15.90
2017-10-11T02:52:09.790Z,16.17
2017-10-11T02:54:37.165Z,15.57
2017-10-11T02:57:04.506Z,15.90
2017-10-11T02:59:31.824Z,15.97
2017-10-11T03:01:59.138Z,17.00
2017-10-11T03:04:26.474Z,15.70
2017-10-11T03:06:53.793Z,16.60
2017-10-11T03:09:21.128Z,15.93
2017-10-11T03:11:48.444Z,16.00
2017-10-11T03:14:15.760Z,14.67
2017-10-11T03:16:43.081Z,15.60
2017-10-11T03:19:10.406Z,15.80
2017-10-11T03:21:37.720Z,14.50
2017-10-11T03:24:05.036Z,14.70
2017-10-11T03:26:32.705Z,15.23
2017-10-11T03:29:00.013Z,13.67
2017-10-11T03:31:27.377Z,14.50
2017-10-11T03:33:54.693Z,14.50
2017-10-11T03:36:22.017Z,12.63
2017-10-11T03:38:49.316Z,14.40
2017-10-11T03:41:16.647Z,14.33
2017-10-11T03:43:43.953Z,13.13
2017-10-11T03:46:11.289Z,13.40
2017-10-11T03:48:38.605Z,14.33
2017-10-11T03:51:05.910Z,12.97
2017-10-11T03:53:33.237Z,12.87
2017-10-11T03:56:00.562Z,12.90
2017-10-11T03:58:27.921Z,13.47
2017-10-11T04:00:55.225Z,13.93
2017-10-11T04:03:22.560Z,14.00
2017-10-11T04:05:49.880Z,12.43
2017-10-11T04:08:17.377Z,14.20
2017-10-11T04:10:46.036Z,12.90
2017-10-11T04:13:13.389Z,13.07
2017-10-11T04:15:40.749Z,13.53
2017-10-11T04:18:08.081Z,14.67
2017-10-11T04:20:35.385Z,14.63
2017-10-11T04:23:02.701Z,14.60
2017-10-11T04:25:30.041Z,14.47
2017-10-11T04:27:57.349Z,13.30
2017-10-11T04:30:24.672Z,14.37
2017-10-11T04:32:52.002Z,13.00
2017-10-11T04:35:19.329Z,13.47
2017-10-11T04:37:46.633Z,14.47
2017-10-11T04:40:13.952Z,14.47
2017-10-11T04:42:41.277Z,14.10
2017-10-11T04:45:08.600Z,12.57
2017-10-11T04:47:35.917Z,13.57
2017-10-11T04:50:03.236Z,13.47
2017-10-11T04:52:30.565Z,13.40
2017-10-11T04:54:57.918Z,13.73
2017-10-11T04:57:25.221Z,14.67
2017-10-11T04:59:52.554Z,13.70
2017-10-11T05:02:19.874Z,13.20
2017-10-11T05:04:47.196Z,12.70
2017-10-11T05:07:14.513Z,12.13
2017-10-11T05:09:41.825Z,12.83
2017-10-11T05:12:09.149Z,13.40
2017-10-11T05:14:36.461Z,12.17
2017-10-11T05:17:03.781Z,12.77
2017-10-11T05:19:31.166Z,13.40
2017-10-11T05:21:58.482Z,14.07
2017-10-11T05:24:25.882Z,12.10
2017-10-11T05:26:53.232Z,13.13
2017-10-11T05:29:20.545Z,12.80
2017-10-11T05:31:47.867Z,13.27
2017-10-11T05:34:15.188Z,12.70
2017-10-11T05:36:42.503Z,12.37
2017-10-11T05:39:09.824Z,13.23
2017-10-11T05:41:37.132Z,12.60
2017-10-11T05:44:04.457Z,13.33
2017-10-11T05:46:31.758Z,13.87
2017-10-11T05:48:59.078Z,13.23
2017-10-11T05:51:26.396Z,12.80
2017-10-11T05:53:53.712Z,13.33
2017-10-11T05:56:21.852Z,12.40
2017-10-11T05:58:49.161Z,12.53
2017-10-11T06:01:16.480Z,13.00
2017-10-11T06:03:43.856Z,13.23
2017-10-11T06:06:11.325Z,12.70
2017-10-11T06:08:38.647Z,12.30
2017-10-11T06:11:05.977Z,11.37
2017-10-11T06:13:33.288Z,12.10
2017-10-11T06:16:00.616Z,12.00
2017-10-11T06:18:27.937Z,11.90
2017-10-11T06:20:55.256Z,12.00
2017-10-11T06:23:22.561Z,12.27
2017-10-11T06:25:49.889Z,11.13
2017-10-11T06:28:17.246Z,12.07
2017-10-11T06:30:44.577Z,12.10
2017-10-11T06:33:11.909Z,10.83
2017-10-11T06:35:39.267Z,11.17
2017-10-11T06:38:06.581Z,10.90
2017-10-11T06:40:33.912Z,11.43
2017-10-11T06:43:01.209Z,9.80
2017-10-11T06:45:28.537Z,10.73
2017-10-11T06:47:55.850Z,10.17
2017-10-11T06:50:23.182Z,9.47
2017-10-11T06:52:50.526Z,8.93
2017-10-11T06:55:17.846Z,9.33
2017-10-11T06:57:45.166Z,9.30
2017-10-11T07:00:12.469Z,10.13
2017-10-11T07:02:39.805Z,9.50
2017-10-11T07:05:07.109Z,8.87
2017-10-11T07:07:34.685Z,8.73
2017-10-11T07:10:02.040Z,8.87
2017-10-11T07:12:29.393Z,8.70
2017-10-11T07:14:56.699Z,8.60
2017-10-11T07:17:24.292Z,8.53
2017-10-11T07:19:51.626Z,8.63
2017-10-11T07:22:18.969Z,8.57
2017-10-11T07:24:46.265Z,8.87
2017-10-11T07:27:13.612Z,8.63
2017-10-11T07:29:40.934Z,8.67
2017-10-11T07:32:08.253Z,8.00
2017-10-11T07:34:35.618Z,8.07
2017-10-11T07:37:02.949Z,7.67
2017-10-11T07:39:30.265Z,7.97
2017-10-11T07:41:57.584Z,8.30
2017-10-11T07:44:24.885Z,7.63
2017-10-11T07:46:52.185Z,7.53
2017-10-11T07:49:19.520Z,8.00
2017-10-11T07:51:46.825Z,7.47
2017-10-11T07:54:14.172Z,7.23
2017-10-11T07:56:41.480Z,6.50
2017-10-11T07:59:08.797Z,7.67
2017-10-11T08:01:36.160Z,7.17
2017-10-11T08:04:03.474Z,6.27
2017-10-11T08:06:30.784Z,6.47
2017-10-11T08:08:58.111Z,6.27
2017-10-11T08:11:25.448Z,6.40
2017-10-11T08:13:52.764Z,6.40
2017-10-11T08:16:20.066Z,6.00
2017-10-11T08:18:47.381Z,6.13
2017-10-11T08:21:14.712Z,6.20
2017-10-11T08:23:42.010Z,6.50
2017-10-11T08:26:09.346Z,6.10
2017-10-11T08:28:36.646Z,5.87
2017-10-11T08:31:03.989Z,5.70
2017-10-11T08:33:31.345Z,5.90
2017-10-11T08:35:58.661Z,6.30
2017-10-11T08:38:25.972Z,6.13
2017-10-11T08:40:53.297Z,6.03
2017-10-11T08:43:20.636Z,5.30
2017-10-11T08:45:47.940Z,5.80
2017-10-11T08:48:15.248Z,5.93
2017-10-11T08:50:42.567Z,5.97
2017-10-11T08:53:09.853Z,6.20
2017-10-11T08:55:37.197Z,5.67
2017-10-11T08:58:04.524Z,5.87
2017-10-11T09:00:31.817Z,5.90
2017-10-11T09:02:59.138Z,5.63
2017-10-11T09:05:26.737Z,5.70
2017-10-11T09:07:54.045Z,6.10
2017-10-11T09:10:21.365Z,5.80
2017-10-11T09:12:48.669Z,5.83
2017-10-11T09:15:15.960Z,5.73
2017-10-11T09:17:43.285Z,5.53
2017-10-11T09:20:10.583Z,5.20
2017-10-11T09:22:37.928Z,5.53
2017-10-11T09:25:05.233Z,5.60
2017-10-11T09:27:32.582Z,6.17
2017-10-11T09:29:59.864Z,5.20
2017-10-11T09:32:27.192Z,5.30
2017-10-11T09:34:54.503Z,5.40
2017-10-11T09:37:21.817Z,5.73
2017-10-11T09:39:49.130Z,5.87
2017-10-11T09:42:16.421Z,4.80
2017-10-11T09:44:43.745Z,5.87
2017-10-11T09:47:11.044Z,5.50
2017-10-11T09:49:38.382Z,5.00
2017-10-11T09:52:06.577Z,4.87
2017-10-11T09:54:33.885Z,5.03
2017-10-11T09:57:01.198Z,5.57
2017-10-11T09:59:28.524Z,5.00
2017-10-11T10:01:55.820Z,5.13
2017-10-11T10:04:23.141Z,5.07
2017-10-11T10:06:50.668Z,5.20
2017-10-11T10:09:17.985Z,5.40
2017-10-11T10:11:45.296Z,4.83
2017-10-11T10:14:12.589Z,4.80
2017-10-11T10:16:39.930Z,4.90
2017-10-11T10:19:07.233Z,4.80
2017-10-11T10:21:34.546Z,4.43
2017-10-11T10:24:01.853Z,4.90
2017-10-11T10:26:29.173Z,5.63
2017-10-11T10:28:56.477Z,4.70
2017-10-11T10:31:23.789Z,5.50
2017-10-11T10:33:51.117Z,5.00
2017-10-11T10:36:18.420Z,4.63
2017-10-11T10:38:45.758Z,5.03
2017-10-11T10:41:13.082Z,5.10
2017-10-11T10:43:40.389Z,4.40
2017-10-11T10:46:07.709Z,4.90
2017-10-11T10:48:35.038Z,4.47
2017-10-11T10:51:02.330Z,4.90
2017-10-11T10:53:29.982Z,4.43
2017-10-11T10:55:57.297Z,4.90
2017-10-11T10:58:24.622Z,4.67
2017-10-11T11:00:51.916Z,4.97
2017-10-11T11:03:19.259Z,5.30
2017-10-11T11:05:46.558Z,6.03
2017-10-11T11:08:13.911Z,6.30
2017-10-11T11:10:41.232Z,6.67
2017-10-11T11:13:08.542Z,6.57
2017-10-11T11:15:35.841Z,6.97
2017-10-11T11:18:03.177Z,6.50
2017-10-11T11:20:30.480Z,7.30
2017-10-11T11:22:57.800Z,6.80
2017-10-11T11:25:25.410Z,6.30
2017-10-11T11:27:52.729Z,7.00
2017-10-11T11:30:20.049Z,7.10
2017-10-11T11:32:47.378Z,7.40
2017-10-11T11:35:14.703Z,7.30
2017-10-11T11:37:42.000Z,7.10
2017-10-11T11:40:09.304Z,6.93
2017-10-11T11:42:36.661Z,7.30
2017-10-11T11:45:03.992Z,6.83
2017-10-11T11:47:31.281Z,7.23
2017-10-11T11:49:58.669Z,6.80
2017-10-11T11:52:25.972Z,7.40
2017-10-11T11:54:53.306Z,7.43
2017-10-11T11:57:20.761Z,7.00
2017-10-11T11:59:48.061Z,6.93
2017-10-11T12:02:15.373Z,7.37
2017-10-11T12:04:42.669Z,7.33
2017-10-11T12:07:10.001Z,8.00
2017-10-11T12:09:37.302Z,7.07
2017-10-11T12:12:04.621Z,7.67
2017-10-11T12:14:32.133Z,8.07
2017-10-11T12:16:59.461Z,7.70
2017-10-11T12:19:26.777Z,6.93
2017-10-11T12:21:54.182Z,7.23
2017-10-11T12:24:21.520Z,8.33
2017-10-11T12:26:48.832Z,7.20
2017-10-11T12:29:16.140Z,7.17
2017-10-11T12:31:43.527Z,8.40
2017-10-11T12:34:10.817Z,6.90
2017-10-11T12:36:38.120Z,8.03
2017-10-11T12:39:05.773Z,7.50
2017-10-11T12:41:33.118Z,6.10
2017-10-11T12:44:00.441Z,7.50
2017-10-11T12:46:27.741Z,6.87
2017-10-11T12:48:55.077Z,6.60
2017-10-11T12:51:22.386Z,6.97
2017-10-11T12:53:49.696Z,6.50
2017-10-11T12:56:17.014Z,7.00
2017-10-11T12:58:44.493Z,7.20
2017-10-11T13:01:11.808Z,7.10
2017-10-11T13:03:39.177Z,6.90
2017-10-11T13:06:06.491Z,6.60
2017-10-11T13:08:33.816Z,7.10
2017-10-11T13:11:01.127Z,7.13
2017-10-11T13:13:28.597Z,6.30
2017-10-11T13:15:55.938Z,6.30
2017-10-11T13:18:23.245Z,6.63
2017-10-11T13:20:50.585Z,6.00
2017-10-11T13:23:17.878Z,6.60
2017-10-11T13:25:45.298Z,6.17
2017-10-11T13:28:12.586Z,6.13
2017-10-11T13:30:39.922Z,6.20
2017-10-11T13:33:07.237Z,6.30
2017-10-11T13:35:34.585Z,6.50
2017-10-11T13:38:01.898Z,6.10
2017-10-11T13:40:29.225Z,6.13
2017-10-11T13:42:56.593Z,5.90
2017-10-11T13:45:23.924Z,6.00
2017-10-11T13:47:51.317Z,5.53
2017-10-11T13:50:18.674Z,5.60
2017-10-11T13:52:45.998Z,6.30
2017-10-11T13:55:13.307Z,5.80
2017-10-11T13:57:40.641Z,6.20
2017-10-11T14:00:07.941Z,6.07
2017-10-11T14:02:35.518Z,6.17
2017-10-11T14:05:02.847Z,6.37
2017-10-11T14:07:30.169Z,5.90
2017-10-11T14:09:57.498Z,6.13
2017-10-11T14:12:24.804Z,5.97
2017-10-11T14:14:52.146Z,6.10
2017-10-11T14:17:19.483Z,6.00
2017-10-11T14:19:46.793Z,6.50
2017-10-11T14:22:14.130Z,6.23
2017-10-11T14:24:41.449Z,5.23
2017-10-11T14:27:08.769Z,6.40
2017-10-11T14:29:36.090Z,5.70
2017-10-11T14:32:03.438Z,6.30
2017-10-11T14:34:30.749Z,6.63
2017-10-11T14:36:58.078Z,5.97
2017-10-11T14:39:25.486Z,6.10
2017-10-11T14:41:52.782Z,6.70
2017-10-11T14:44:20.103Z,6.30
2017-10-11T14:46:47.685Z,6.30
2017-10-11T14:49:15.356Z,5.90
2017-10-11T14:51:42.701Z,6.80
2017-10-11T14:54:10.053Z,6.33
2017-10-11T14:56:37.345Z,6.80
2017-10-11T14:59:04.683Z,6.10
2017-10-11T15:01:31.973Z,6.30
2017-10-11T15:03:59.288Z,6.53
2017-10-11T15:06:26.577Z,6.40
2017-10-11T15:08:53.885Z,6.47
2017-10-11T15:11:21.213Z,6.23
2017-10-11T15:13:48.517Z,6.23
2017-10-11T15:16:16.478Z,5.80
2017-10-11T15:18:43.776Z,6.50
2017-10-11T15:21:11.104Z,6.07
2017-10-11T15:23:38.410Z,5.60
2017-10-11T15:26:05.747Z,5.60
2017-10-11T15:28:33.047Z,5.77
2017-10-11T15:31:00.389Z,5.40
2017-10-11T15:33:27.685Z,5.43
2017-10-11T15:35:55.030Z,5.80
2017-10-11T15:38:23.270Z,5.50
2017-10-11T15:40:50.609Z,5.60
2017-10-11T15:43:17.888Z,5.00
2017-10-11T15:45:45.269Z,5.33
2017-10-11T15:48:12.572Z,5.33
2017-10-11T15:50:39.862Z,5.60
2017-10-11T15:53:07.180Z,5.20
2017-10-11T15:55:34.482Z,5.60
2017-10-11T15:58:01.796Z,4.90
2017-10-11T16:00:29.461Z,5.00
2017-10-11T16:02:56.809Z,5.23
2017-10-11T16:05:24.093Z,4.40
2017-10-11T16:07:51.405Z,5.03
2017-10-11T16:10:18.707Z,5.40
2017-10-11T16:12:46.021Z,5.30
2017-10-11T16:15:13.329Z,5.30
2017-10-11T16:17:40.822Z,5.13
2017-10-11T16:20:08.113Z,5.20
2017-10-11T16:22:35.453Z,5.47
2017-10-11T16:25:02.742Z,5.10
2017-10-11T16:27:30.088Z,4.73
2017-10-11T16:29:57.448Z,5.60
2017-10-11T16:32:24.737Z,5.10
2017-10-11T16:34:52.071Z,5.37
2017-10-11T16:37:19.384Z,4.33
2017-10-11T16:39:46.689Z,5.00
2017-10-11T16:42:13.995Z,4.90
2017-10-11T16:44:41.291Z,5.10
2017-10-11T16:47:08.626Z,4.80
2017-10-11T16:49:35.936Z,4.80
2017-10-11T16:52:03.256Z,4.53
2017-10-11T16:54:30.568Z,5.20
2017-10-11T16:56:57.893Z,4.90
2017-10-11T16:59:26.129Z,5.20
2017-10-11T17:01:53.462Z,4.50
2017-10-11T17:04:20.773Z,4.60
2017-10-11T17:06:48.095Z,5.10
2017-10-11T17:09:15.614Z,4.50
2017-10-11T17:11:42.952Z,5.67
2017-10-11T17:14:10.233Z,5.53
2017-10-11T17:16:37.540Z,5.33
2017-10-11T17:19:04.833Z,5.17
2017-10-11T17:21:32.325Z,5.23
2017-10-11T17:23:59.613Z,4.63
2017-10-11T17:26:26.957Z,4.93
2017-10-11T17:28:54.274Z,5.30
2017-10-11T17:31:21.572Z,5.50
2017-10-11T17:33:48.856Z,5.30
2017-10-11T17:36:16.165Z,5.27
2017-10-11T17:38:43.491Z,5.50
2017-10-11T17:41:10.969Z,6.03
2017-10-11T17:43:38.274Z,5.73
2017-10-11T17:46:05.608Z,5.73
2017-10-11T17:48:32.901Z,5.53
2017-10-11T17:51:00.240Z,5.30
2017-10-11T17:53:27.542Z,5.50
2017-10-11T17:55:54.825Z,5.80
2017-10-11T17:58:22.146Z,5.67
2017-10-11T18:00:49.428Z,6.10
2017-10-11T18:03:16.809Z,6.00
2017-10-11T18:05:44.158Z,5.43
2017-10-11T18:08:11.478Z,5.90
2017-10-11T18:10:38.777Z,6.10
2017-10-11T18:13:06.097Z,5.67
2017-10-11T18:15:33.404Z,6.03
2017-10-11T18:18:00.725Z,5.70
2017-10-11T18:20:28.069Z,6.30
2017-10-11T18:22:55.376Z,5.50
2017-10-11T18:25:22.670Z,5.60
2017-10-11T18:27:50.005Z,5.73
2017-10-11T18:30:17.316Z,6.40
2017-10-11T18:32:44.634Z,6.77
2017-10-11T18:35:11.958Z,7.03
2017-10-11T18:37:39.265Z,6.30
2017-10-11T18:40:06.596Z,6.30
2017-10-11T18:42:33.897Z,6.13
2017-10-11T18:45:01.248Z,7.20
2017-10-11T18:47:28.548Z,6.50
2017-10-11T18:49:55.886Z,6.67
2017-10-11T18:52:23.202Z,6.57
2017-10-11T18:54:50.577Z,6.53
2017-10-11T18:57:17.909Z,6.80
2017-10-11T18:59:45.218Z,7.50
2017-10-11T19:02:12.509Z,7.30
2017-10-11T19:04:39.820Z,6.90
2017-10-11T19:07:07.140Z,7.20
2017-10-11T19:09:34.450Z,7.23
2017-10-11T19:12:01.790Z,7.57
2017-10-11T19:14:29.101Z,7.10
2017-10-11T19:16:56.437Z,6.47
2017-10-11T19:19:23.747Z,6.93
2017-10-11T19:21:51.106Z,7.03
2017-10-11T19:24:18.424Z,7.47
2017-10-11T19:26:45.766Z,7.33
2017-10-11T19:29:13.076Z,7.40
2017-10-11T19:31:40.403Z,7.33
2017-10-11T19:34:07.709Z,7.47
2017-10-11T19:36:35.013Z,6.63
2017-10-11T19:39:02.358Z,7.37
2017-10-11T19:41:29.701Z,6.67
2017-10-11T19:43:56.997Z,6.97
2017-10-11T19:46:24.316Z,6.60
2017-10-11T19:48:51.619Z,6.40
2017-10-11T19:51:18.926Z,6.90
2017-10-11T19:53:46.260Z,6.87
2017-10-11T19:56:13.584Z,8.00
2017-10-11T19:58:41.208Z,7.30
2017-10-11T20:01:08.509Z,6.40
2017-10-11T20:03:35.838Z,7.37
2017-10-11T20:06:03.136Z,7.50
2017-10-11T20:08:30.480Z,6.67
2017-10-11T20:10:57.770Z,7.20
2017-10-11T20:13:25.315Z,6.97
2017-10-11T20:15:52.622Z,6.70
2017-10-11T20:18:19.953Z,6.47
2017-10-11T20:20:47.244Z,6.60
2017-10-11T20:23:14.565Z,6.70
2017-10-11T20:25:41.877Z,7.03
2017-10-11T20:28:09.181Z,7.80
2017-10-11T20:30:36.506Z,6.23
2017-10-11T20:33:03.832Z,6.80
2017-10-11T20:35:31.143Z,6.47
2017-10-11T20:37:58.497Z,6.87
2017-10-11T20:40:25.842Z,6.97
2017-10-11T20:42:53.126Z,7.70
2017-10-11T20:45:20.440Z,7.30
2017-10-11T20:47:47.767Z,7.17
2017-10-11T20:50:15.074Z,6.80
2017-10-11T20:52:42.409Z,7.20
2017-10-11T20:55:09.721Z,6.87
2017-10-11T20:57:37.025Z,7.10
2017-10-11T21:00:04.349Z,7.20
2017-10-11T21:02:32.177Z,6.50
2017-10-11T21:04:59.493Z,6.90
2017-10-11T21:07:26.789Z,7.70
2017-10-11T21:09:54.095Z,6.70
2017-10-11T21:12:21.422Z,6.93
2017-10-11T21:14:48.726Z,6.93
2017-10-11T21:17:16.033Z,7.10
2017-10-11T21:19:43.366Z,6.40
2017-10-11T21:22:10.668Z,5.93
2017-10-11T21:24:38.016Z,6.33
2017-10-11T21:27:05.338Z,6.60
2017-10-11T21:29:32.620Z,6.33
2017-10-11T21:31:59.934Z,7.17
2017-10-11T21:34:27.279Z,6.50
2017-10-11T21:36:54.597Z,5.70
2017-10-11T21:39:21.917Z,6.93
2017-10-11T21:41:49.233Z,5.93
2017-10-11T21:44:16.650Z,6.43
2017-10-11T21:46:43.964Z,6.30
2017-10-11T21:49:11.288Z,5.90
2017-10-11T21:51:38.609Z,6.40
2017-10-11T21:54:05.923Z,5.70
2017-10-11T21:56:33.233Z,5.90
2017-10-11T21:59:00.544Z,5.70
2017-10-11T22:01:27.837Z,6.00
2017-10-11T22:03:55.148Z,5.47
2017-10-11T22:06:22.453Z,5.60
2017-10-11T22:08:49.774Z,6.10
2017-10-11T22:11:17.106Z,5.40
2017-10-11T22:13:44.421Z,5.73
2017-10-11T22:16:12.033Z,5.17
2017-10-11T22:18:39.357Z,5.90
2017-10-11T22:21:06.664Z,5.43
2017-10-11T22:23:33.971Z,5.53
2017-10-11T22:26:01.258Z,5.43
2017-10-11T22:28:28.593Z,5.57
2017-10-11T22:30:55.880Z,5.97
2017-10-11T22:33:23.265Z,5.07
2017-10-11T22:35:50.568Z,5.53
2017-10-11T22:38:17.861Z,5.40
2017-10-11T22:40:45.189Z,5.60
2017-10-11T22:43:12.485Z,5.43
2017-10-11T22:45:39.793Z,5.50
2017-10-11T22:48:07.225Z,5.37
2017-10-11T22:50:34.546Z,5.40
2017-10-11T22:53:01.849Z,5.30
2017-10-11T22:55:29.165Z,5.00
2017-10-11T22:57:56.452Z,5.10
2017-10-11T23:00:23.789Z,5.17
2017-10-11T23:02:51.076Z,5.47
2017-10-11T23:05:18.421Z,5.10
2017-10-11T23:07:45.704Z,5.23
2017-10-11T23:10:13.017Z,5.67
2017-10-11T23:12:40.315Z,5.73
2017-10-11T23:15:07.618Z,6.53
2017-10-11T23:17:34.970Z,5.67
2017-10-11T23:20:03.165Z,5.10
2017-10-11T23:22:30.477Z,5.20
2017-10-11T23:24:57.765Z,5.50
2017-10-11T23:27:25.252Z,4.93
2017-10-11T23:29:52.578Z,4.97
2017-10-11T23:32:19.889Z,5.33
2017-10-11T23:34:47.180Z,5.00
2017-10-11T23:37:14.524Z,5.23
2017-10-11T23:39:41.819Z,5.13
2017-10-11T23:42:09.164Z,5.30
2017-10-11T23:44:36.459Z,5.23
2017-10-11T23:47:03.800Z,4.90
2017-10-11T23:49:31.093Z,5.67
2017-10-11T23:51:58.473Z,4.87
2017-10-11T23:54:25.818Z,5.20
2017-10-11T23:56:53.132Z,5.23
2017-10-11T23:59:20.440Z,5.30
